sensor_id;sensor_type;location;lat;lon;timestamp;P1;durP1;ratioP1;P2;durP2;ratioP2
37559;SDS011;23398;50.928;7.084;2022-10-22T00:01:10;5.68;;;2.47;;
37559;SDS011;23398;50.928;7.084;2022-10-22T00:03:35;2.70;;;2.03;;
37559;SDS011;23398;50.928;7.084;2022-10-22T00:06:01;2.90;;;2.03;;
37559;SDS011;23398;50.928;7.084;2022-10-22T00:08:26;4.50;;;2.40;;
37559;SDS011;23398;50.928;7.084;2022-10-22T00:10:52;3.80;;;2.35;;
37559;SDS011;23398;50.928;7.084;2022-10-22T00:13:17;4.35;;;2.17;;
37559;SDS011;23398;50.928;7.084;2022-10-22T00:15:43;7.13;;;2.42;;
37559;SDS011;23398;50.928;7.084;2022-10-22T00:18:09;6.35;;;2.60;;
37559;SDS011;23398;50.928;7.084;2022-10-22T00:20:35;4.63;;;2.20;;
37559;SDS011;23398;50.928;7.084;2022-10-22T00:23:00;5.13;;;2.20;;
37559;SDS011;23398;50.928;7.084;2022-10-22T00:25:26;3.25;;;2.20;;
37559;SDS011;23398;50.928;7.084;2022-10-22T00:27:51;3.45;;;1.92;;
37559;SDS011;23398;50.928;7.084;2022-10-22T00:30:17;4.20;;;2.17;;
37559;SDS011;23398;50.928;7.084;2022-10-22T00:32:42;6.93;;;2.80;;
37559;SDS011;23398;50.928;7.084;2022-10-22T00:35:08;5.05;;;2.17;;
37559;SDS011;23398;50.928;7.084;2022-10-22T00:37:33;4.75;;;2.47;;
37559;SDS011;23398;50.928;7.084;2022-10-22T00:39:59;2.88;;;2.10;;
37559;SDS011;23398;50.928;7.084;2022-10-22T00:42:25;3.88;;;2.20;;
37559;SDS011;23398;50.928;7.084;2022-10-22T00:51:14;2.97;;;2.25;;
37559;SDS011;23398;50.928;7.084;2022-10-22T00:53:20;3.60;;;2.25;;
37559;SDS011;23398;50.928;7.084;2022-10-22T00:55:50;5.53;;;2.10;;
37559;SDS011;23398;50.928;7.084;2022-10-22T00:58:18;6.15;;;2.10;;
37559;SDS011;23398;50.928;7.084;2022-10-22T01:00:46;5.43;;;2.50;;
37559;SDS011;23398;50.928;7.084;2022-10-22T01:03:12;2.83;;;2.30;;
37559;SDS011;23398;50.928;7.084;2022-10-22T01:05:40;2.55;;;2.08;;
37559;SDS011;23398;50.928;7.084;2022-10-22T01:08:08;3.35;;;2.63;;
37559;SDS011;23398;50.928;7.084;2022-10-22T01:18:28;2.13;;;1.92;;
37559;SDS011;23398;50.928;7.084;2022-10-22T01:21:10;2.83;;;2.15;;
37559;SDS011;23398;50.928;7.084;2022-10-22T01:23:59;3.47;;;2.25;;
37559;SDS011;23398;50.928;7.084;2022-10-22T01:29:10;3.25;;;2.13;;
37559;SDS011;23398;50.928;7.084;2022-10-22T01:31:54;2.80;;;2.00;;
37559;SDS011;23398;50.928;7.084;2022-10-22T01:34:27;4.05;;;2.05;;
37559;SDS011;23398;50.928;7.084;2022-10-22T01:36:54;8.77;;;2.72;;
37559;SDS011;23398;50.928;7.084;2022-10-22T01:39:21;5.22;;;2.35;;
37559;SDS011;23398;50.928;7.084;2022-10-22T01:41:49;5.68;;;2.28;;
37559;SDS011;23398;50.928;7.084;2022-10-22T01:44:30;4.55;;;2.42;;
37559;SDS011;23398;50.928;7.084;2022-10-22T01:47:12;2.85;;;1.90;;
37559;SDS011;23398;50.928;7.084;2022-10-22T01:50:14;4.43;;;1.70;;
37559;SDS011;23398;50.928;7.084;2022-10-22T01:52:55;3.67;;;1.88;;
37559;SDS011;23398;50.928;7.084;2022-10-22T01:58:36;5.07;;;2.42;;
37559;SDS011;23398;50.928;7.084;2022-10-22T02:04:27;3.72;;;1.98;;
37559;SDS011;23398;50.928;7.084;2022-10-22T02:06:58;2.45;;;1.88;;
37559;SDS011;23398;50.928;7.084;2022-10-22T02:09:27;2.97;;;2.10;;
37559;SDS011;23398;50.928;7.084;2022-10-22T02:11:56;2.67;;;2.05;;
37559;SDS011;23398;50.928;7.084;2022-10-22T02:14:26;5.30;;;2.20;;
37559;SDS011;23398;50.928;7.084;2022-10-22T02:16:54;4.68;;;2.50;;
37559;SDS011;23398;50.928;7.084;2022-10-22T02:22:24;3.40;;;2.40;;
37559;SDS011;23398;50.928;7.084;2022-10-22T02:24:51;6.43;;;2.63;;
37559;SDS011;23398;50.928;7.084;2022-10-22T02:27:25;2.60;;;2.40;;
37559;SDS011;23398;50.928;7.084;2022-10-22T02:32:33;4.30;;;2.63;;
37559;SDS011;23398;50.928;7.084;2022-10-22T02:35:06;4.50;;;2.30;;
37559;SDS011;23398;50.928;7.084;2022-10-22T02:37:35;3.90;;;2.33;;
37559;SDS011;23398;50.928;7.084;2022-10-22T02:40:02;3.40;;;2.15;;
37559;SDS011;23398;50.928;7.084;2022-10-22T02:42:28;7.03;;;2.65;;
37559;SDS011;23398;50.928;7.084;2022-10-22T02:44:54;3.80;;;2.47;;
37559;SDS011;23398;50.928;7.084;2022-10-22T02:47:20;4.70;;;2.47;;
37559;SDS011;23398;50.928;7.084;2022-10-22T02:49:45;3.88;;;2.35;;
37559;SDS011;23398;50.928;7.084;2022-10-22T02:52:11;9.68;;;2.67;;
37559;SDS011;23398;50.928;7.084;2022-10-22T02:54:36;5.80;;;2.47;;
37559;SDS011;23398;50.928;7.084;2022-10-22T02:57:02;4.70;;;2.65;;
37559;SDS011;23398;50.928;7.084;2022-10-22T02:59:28;3.17;;;2.55;;
37559;SDS011;23398;50.928;7.084;2022-10-22T03:01:53;3.08;;;2.13;;
37559;SDS011;23398;50.928;7.084;2022-10-22T03:04:19;3.70;;;2.20;;
37559;SDS011;23398;50.928;7.084;2022-10-22T03:06:44;3.17;;;2.20;;
37559;SDS011;23398;50.928;7.084;2022-10-22T03:09:12;4.55;;;2.38;;
37559;SDS011;23398;50.928;7.084;2022-10-22T03:11:38;5.88;;;2.20;;
37559;SDS011;23398;50.928;7.084;2022-10-22T03:14:03;3.17;;;2.40;;
37559;SDS011;23398;50.928;7.084;2022-10-22T03:16:29;3.75;;;2.30;;
37559;SDS011;23398;50.928;7.084;2022-10-22T03:18:54;3.22;;;2.25;;
37559;SDS011;23398;50.928;7.084;2022-10-22T03:24:11;3.50;;;1.90;;
37559;SDS011;23398;50.928;7.084;2022-10-22T03:26:40;3.00;;;2.33;;
37559;SDS011;23398;50.928;7.084;2022-10-22T03:29:07;5.30;;;2.50;;
37559;SDS011;23398;50.928;7.084;2022-10-22T03:31:34;2.92;;;2.10;;
37559;SDS011;23398;50.928;7.084;2022-10-22T03:34:00;2.75;;;2.25;;
37559;SDS011;23398;50.928;7.084;2022-10-22T03:36:25;4.82;;;2.15;;
37559;SDS011;23398;50.928;7.084;2022-10-22T03:38:51;3.15;;;2.17;;
37559;SDS011;23398;50.928;7.084;2022-10-22T03:41:16;4.93;;;2.10;;
37559;SDS011;23398;50.928;7.084;2022-10-22T03:43:42;2.67;;;2.35;;
37559;SDS011;23398;50.928;7.084;2022-10-22T03:46:13;2.95;;;2.40;;
37559;SDS011;23398;50.928;7.084;2022-10-22T03:48:39;6.78;;;2.72;;
37559;SDS011;23398;50.928;7.084;2022-10-22T03:51:04;4.80;;;2.50;;
37559;SDS011;23398;50.928;7.084;2022-10-22T03:53:30;6.95;;;2.58;;
37559;SDS011;23398;50.928;7.084;2022-10-22T03:55:55;5.85;;;2.85;;
37559;SDS011;23398;50.928;7.084;2022-10-22T03:58:21;5.78;;;2.80;;
37559;SDS011;23398;50.928;7.084;2022-10-22T04:00:46;4.35;;;2.65;;
37559;SDS011;23398;50.928;7.084;2022-10-22T04:03:12;2.95;;;2.63;;
37559;SDS011;23398;50.928;7.084;2022-10-22T04:05:38;4.50;;;2.35;;
37559;SDS011;23398;50.928;7.084;2022-10-22T04:08:03;6.22;;;3.13;;
37559;SDS011;23398;50.928;7.084;2022-10-22T04:10:29;3.78;;;2.65;;
37559;SDS011;23398;50.928;7.084;2022-10-22T04:12:54;3.70;;;2.45;;
37559;SDS011;23398;50.928;7.084;2022-10-22T04:15:20;7.75;;;2.85;;
37559;SDS011;23398;50.928;7.084;2022-10-22T04:17:45;4.10;;;3.00;;
37559;SDS011;23398;50.928;7.084;2022-10-22T04:20:11;3.55;;;2.63;;
37559;SDS011;23398;50.928;7.084;2022-10-22T04:22:37;2.83;;;2.35;;
37559;SDS011;23398;50.928;7.084;2022-10-22T04:25:02;4.18;;;2.70;;
37559;SDS011;23398;50.928;7.084;2022-10-22T04:27:33;5.22;;;2.90;;
37559;SDS011;23398;50.928;7.084;2022-10-22T04:29:58;3.55;;;2.92;;
37559;SDS011;23398;50.928;7.084;2022-10-22T04:32:25;3.85;;;2.72;;
37559;SDS011;23398;50.928;7.084;2022-10-22T04:34:50;4.28;;;2.72;;
37559;SDS011;23398;50.928;7.084;2022-10-22T04:37:16;5.70;;;3.00;;
37559;SDS011;23398;50.928;7.084;2022-10-22T04:39:41;4.82;;;3.25;;
37559;SDS011;23398;50.928;7.084;2022-10-22T04:42:07;3.63;;;2.72;;
37559;SDS011;23398;50.928;7.084;2022-10-22T04:44:33;4.82;;;2.75;;
37559;SDS011;23398;50.928;7.084;2022-10-22T04:46:58;4.03;;;2.90;;
37559;SDS011;23398;50.928;7.084;2022-10-22T04:49:24;4.10;;;2.78;;
37559;SDS011;23398;50.928;7.084;2022-10-22T04:51:49;4.28;;;2.85;;
37559;SDS011;23398;50.928;7.084;2022-10-22T04:54:15;3.65;;;2.75;;
37559;SDS011;23398;50.928;7.084;2022-10-22T04:56:41;5.32;;;2.63;;
37559;SDS011;23398;50.928;7.084;2022-10-22T04:59:07;3.53;;;2.55;;
37559;SDS011;23398;50.928;7.084;2022-10-22T05:01:38;4.45;;;2.63;;
37559;SDS011;23398;50.928;7.084;2022-10-22T05:04:06;3.13;;;2.65;;
37559;SDS011;23398;50.928;7.084;2022-10-22T05:06:34;4.45;;;2.78;;
37559;SDS011;23398;50.928;7.084;2022-10-22T05:09:05;5.47;;;2.63;;
37559;SDS011;23398;50.928;7.084;2022-10-22T05:11:33;4.38;;;3.00;;
37559;SDS011;23398;50.928;7.084;2022-10-22T05:14:02;6.28;;;2.58;;
37559;SDS011;23398;50.928;7.084;2022-10-22T05:16:30;3.97;;;2.40;;
37559;SDS011;23398;50.928;7.084;2022-10-22T05:18:57;6.07;;;2.70;;
37559;SDS011;23398;50.928;7.084;2022-10-22T05:21:23;3.95;;;2.85;;
37559;SDS011;23398;50.928;7.084;2022-10-22T05:23:50;6.22;;;2.97;;
37559;SDS011;23398;50.928;7.084;2022-10-22T05:26:18;4.45;;;3.08;;
37559;SDS011;23398;50.928;7.084;2022-10-22T05:28:44;3.90;;;2.97;;
37559;SDS011;23398;50.928;7.084;2022-10-22T05:31:11;3.00;;;2.70;;
37559;SDS011;23398;50.928;7.084;2022-10-22T05:33:38;6.80;;;3.25;;
37559;SDS011;23398;50.928;7.084;2022-10-22T05:36:05;4.05;;;2.63;;
37559;SDS011;23398;50.928;7.084;2022-10-22T05:38:32;5.00;;;2.88;;
37559;SDS011;23398;50.928;7.084;2022-10-22T05:41:17;3.72;;;3.08;;
37559;SDS011;23398;50.928;7.084;2022-10-22T05:43:45;5.07;;;3.13;;
37559;SDS011;23398;50.928;7.084;2022-10-22T05:46:11;5.85;;;2.92;;
37559;SDS011;23398;50.928;7.084;2022-10-22T05:48:42;9.70;;;4.32;;
37559;SDS011;23398;50.928;7.084;2022-10-22T05:51:12;8.65;;;5.10;;
37559;SDS011;23398;50.928;7.084;2022-10-22T05:53:39;5.18;;;3.85;;
37559;SDS011;23398;50.928;7.084;2022-10-22T05:56:07;4.32;;;3.45;;
37559;SDS011;23398;50.928;7.084;2022-10-22T05:58:36;4.35;;;3.05;;
37559;SDS011;23398;50.928;7.084;2022-10-22T06:01:02;3.38;;;2.80;;
37559;SDS011;23398;50.928;7.084;2022-10-22T06:03:29;3.90;;;3.30;;
37559;SDS011;23398;50.928;7.084;2022-10-22T06:05:56;4.80;;;2.75;;
37559;SDS011;23398;50.928;7.084;2022-10-22T06:08:24;4.35;;;3.28;;
37559;SDS011;23398;50.928;7.084;2022-10-22T06:10:50;6.28;;;3.55;;
37559;SDS011;23398;50.928;7.084;2022-10-22T06:13:15;5.85;;;3.22;;
37559;SDS011;23398;50.928;7.084;2022-10-22T06:15:41;3.65;;;3.03;;
37559;SDS011;23398;50.928;7.084;2022-10-22T06:18:07;4.75;;;3.53;;
37559;SDS011;23398;50.928;7.084;2022-10-22T06:20:33;5.03;;;3.40;;
37559;SDS011;23398;50.928;7.084;2022-10-22T06:22:59;4.50;;;3.35;;
37559;SDS011;23398;50.928;7.084;2022-10-22T06:25:24;5.22;;;3.33;;
37559;SDS011;23398;50.928;7.084;2022-10-22T06:27:50;5.35;;;3.50;;
37559;SDS011;23398;50.928;7.084;2022-10-22T06:30:16;4.65;;;3.22;;
37559;SDS011;23398;50.928;7.084;2022-10-22T06:32:41;5.68;;;3.60;;
37559;SDS011;23398;50.928;7.084;2022-10-22T06:35:07;5.35;;;3.25;;
37559;SDS011;23398;50.928;7.084;2022-10-22T06:37:33;4.22;;;3.63;;
37559;SDS011;23398;50.928;7.084;2022-10-22T06:39:58;4.82;;;3.40;;
37559;SDS011;23398;50.928;7.084;2022-10-22T06:42:24;6.70;;;3.70;;
37559;SDS011;23398;50.928;7.084;2022-10-22T06:44:49;4.28;;;3.20;;
37559;SDS011;23398;50.928;7.084;2022-10-22T06:47:15;5.78;;;3.78;;
37559;SDS011;23398;50.928;7.084;2022-10-22T06:49:40;6.07;;;3.17;;
37559;SDS011;23398;50.928;7.084;2022-10-22T06:52:06;4.82;;;3.30;;
37559;SDS011;23398;50.928;7.084;2022-10-22T06:54:32;7.72;;;3.60;;
37559;SDS011;23398;50.928;7.084;2022-10-22T06:56:57;5.63;;;3.33;;
37559;SDS011;23398;50.928;7.084;2022-10-22T06:59:23;5.13;;;3.30;;
37559;SDS011;23398;50.928;7.084;2022-10-22T07:01:48;4.90;;;3.05;;
37559;SDS011;23398;50.928;7.084;2022-10-22T07:04:14;5.57;;;3.00;;
37559;SDS011;23398;50.928;7.084;2022-10-22T07:06:39;3.60;;;2.75;;
37559;SDS011;23398;50.928;7.084;2022-10-22T07:09:05;3.92;;;3.00;;
37559;SDS011;23398;50.928;7.084;2022-10-22T07:11:41;5.85;;;2.88;;
37559;SDS011;23398;50.928;7.084;2022-10-22T07:14:09;4.38;;;3.10;;
37559;SDS011;23398;50.928;7.084;2022-10-22T07:16:35;6.13;;;3.03;;
37559;SDS011;23398;50.928;7.084;2022-10-22T07:19:02;5.28;;;2.95;;
37559;SDS011;23398;50.928;7.084;2022-10-22T07:21:29;3.92;;;2.85;;
37559;SDS011;23398;50.928;7.084;2022-10-22T07:23:55;5.10;;;2.90;;
37559;SDS011;23398;50.928;7.084;2022-10-22T07:26:21;3.80;;;2.95;;
37559;SDS011;23398;50.928;7.084;2022-10-22T07:28:49;5.18;;;3.08;;
37559;SDS011;23398;50.928;7.084;2022-10-22T07:31:17;4.82;;;3.22;;
37559;SDS011;23398;50.928;7.084;2022-10-22T07:33:43;10.65;;;3.25;;
37559;SDS011;23398;50.928;7.084;2022-10-22T07:36:12;4.63;;;2.85;;
37559;SDS011;23398;50.928;7.084;2022-10-22T07:38:45;5.00;;;2.95;;
37559;SDS011;23398;50.928;7.084;2022-10-22T07:41:18;4.70;;;2.60;;
37559;SDS011;23398;50.928;7.084;2022-10-22T07:43:44;4.38;;;2.80;;
37559;SDS011;23398;50.928;7.084;2022-10-22T07:46:09;4.85;;;2.38;;
37559;SDS011;23398;50.928;7.084;2022-10-22T07:48:35;5.75;;;2.22;;
37559;SDS011;23398;50.928;7.084;2022-10-22T07:51:01;5.88;;;2.40;;
37559;SDS011;23398;50.928;7.084;2022-10-22T07:53:27;3.90;;;2.45;;
37559;SDS011;23398;50.928;7.084;2022-10-22T07:55:53;3.13;;;2.20;;
37559;SDS011;23398;50.928;7.084;2022-10-22T07:58:19;5.18;;;2.67;;
37559;SDS011;23398;50.928;7.084;2022-10-22T08:00:45;4.00;;;1.98;;
37559;SDS011;23398;50.928;7.084;2022-10-22T08:03:13;4.75;;;1.95;;
37559;SDS011;23398;50.928;7.084;2022-10-22T08:05:39;3.30;;;1.77;;
37559;SDS011;23398;50.928;7.084;2022-10-22T08:08:07;3.10;;;1.60;;
37559;SDS011;23398;50.928;7.084;2022-10-22T08:10:33;5.35;;;1.90;;
37559;SDS011;23398;50.928;7.084;2022-10-22T08:12:59;4.07;;;1.80;;
37559;SDS011;23398;50.928;7.084;2022-10-22T08:15:25;4.85;;;1.88;;
37559;SDS011;23398;50.928;7.084;2022-10-22T08:17:51;7.38;;;2.22;;
37559;SDS011;23398;50.928;7.084;2022-10-22T08:20:17;3.30;;;1.83;;
37559;SDS011;23398;50.928;7.084;2022-10-22T08:22:43;2.83;;;1.83;;
37559;SDS011;23398;50.928;7.084;2022-10-22T08:25:09;4.70;;;1.67;;
37559;SDS011;23398;50.928;7.084;2022-10-22T08:27:36;3.42;;;1.83;;
37559;SDS011;23398;50.928;7.084;2022-10-22T08:30:02;2.65;;;1.60;;
37559;SDS011;23398;50.928;7.084;2022-10-22T08:32:29;4.47;;;1.80;;
37559;SDS011;23398;50.928;7.084;2022-10-22T08:34:55;2.92;;;1.80;;
37559;SDS011;23398;50.928;7.084;2022-10-22T08:37:20;4.05;;;1.80;;
37559;SDS011;23398;50.928;7.084;2022-10-22T08:39:46;3.60;;;1.73;;
37559;SDS011;23398;50.928;7.084;2022-10-22T08:47:18;3.85;;;1.60;;
37559;SDS011;23398;50.928;7.084;2022-10-22T08:50:11;3.47;;;1.80;;
37559;SDS011;23398;50.928;7.084;2022-10-22T08:52:41;3.88;;;1.50;;
37559;SDS011;23398;50.928;7.084;2022-10-22T08:55:13;3.00;;;1.70;;
37559;SDS011;23398;50.928;7.084;2022-10-22T09:00:51;2.97;;;1.60;;
37559;SDS011;23398;50.928;7.084;2022-10-22T09:03:28;3.05;;;1.60;;
37559;SDS011;23398;50.928;7.084;2022-10-22T09:06:18;3.15;;;1.70;;
37559;SDS011;23398;50.928;7.084;2022-10-22T09:08:48;2.92;;;1.48;;
37559;SDS011;23398;50.928;7.084;2022-10-22T09:13:44;5.28;;;1.75;;
37559;SDS011;23398;50.928;7.084;2022-10-22T09:16:13;2.55;;;1.60;;
37559;SDS011;23398;50.928;7.084;2022-10-22T09:24:36;4.97;;;1.65;;
37559;SDS011;23398;50.928;7.084;2022-10-22T09:27:09;3.60;;;1.60;;
37559;SDS011;23398;50.928;7.084;2022-10-22T09:29:43;4.30;;;1.63;;
37559;SDS011;23398;50.928;7.084;2022-10-22T09:32:10;3.72;;;1.65;;
37559;SDS011;23398;50.928;7.084;2022-10-22T09:34:36;4.82;;;1.88;;
37559;SDS011;23398;50.928;7.084;2022-10-22T09:37:03;5.20;;;1.70;;
37559;SDS011;23398;50.928;7.084;2022-10-22T09:39:32;5.88;;;1.98;;
37559;SDS011;23398;50.928;7.084;2022-10-22T09:42:03;6.47;;;1.77;;
37559;SDS011;23398;50.928;7.084;2022-10-22T09:44:32;4.82;;;1.70;;
37559;SDS011;23398;50.928;7.084;2022-10-22T09:47:02;4.55;;;1.58;;
37559;SDS011;23398;50.928;7.084;2022-10-22T09:49:35;3.70;;;1.60;;
37559;SDS011;23398;50.928;7.084;2022-10-22T09:52:01;2.75;;;1.70;;
37559;SDS011;23398;50.928;7.084;2022-10-22T09:54:41;2.40;;;1.45;;
37559;SDS011;23398;50.928;7.084;2022-10-22T09:57:14;4.68;;;1.67;;
37559;SDS011;23398;50.928;7.084;2022-10-22T09:59:41;3.22;;;1.40;;
37559;SDS011;23398;50.928;7.084;2022-10-22T10:02:13;5.47;;;1.80;;
37559;SDS011;23398;50.928;7.084;2022-10-22T10:04:46;4.13;;;1.50;;
37559;SDS011;23398;50.928;7.084;2022-10-22T10:07:19;6.45;;;1.80;;
37559;SDS011;23398;50.928;7.084;2022-10-22T10:09:50;3.50;;;1.50;;
37559;SDS011;23398;50.928;7.084;2022-10-22T10:23:00;9.07;;;1.55;;
37559;SDS011;23398;50.928;7.084;2022-10-22T10:36:57;2.13;;;1.25;;
37559;SDS011;23398;50.928;7.084;2022-10-22T10:39:48;3.35;;;1.52;;
37559;SDS011;23398;50.928;7.084;2022-10-22T10:42:29;2.75;;;1.10;;
37559;SDS011;23398;50.928;7.084;2022-10-22T10:45:19;3.28;;;1.50;;
37559;SDS011;23398;50.928;7.084;2022-10-22T10:48:08;2.42;;;1.15;;
37559;SDS011;23398;50.928;7.084;2022-10-22T10:56:34;4.47;;;1.23;;
37559;SDS011;23398;50.928;7.084;2022-10-22T11:02:14;2.33;;;1.08;;
37559;SDS011;23398;50.928;7.084;2022-10-22T11:05:02;3.30;;;1.40;;
37559;SDS011;23398;50.928;7.084;2022-10-22T11:07:41;3.40;;;1.40;;
37559;SDS011;23398;50.928;7.084;2022-10-22T11:13:05;2.78;;;1.10;;
37559;SDS011;23398;50.928;7.084;2022-10-22T11:15:38;2.38;;;1.10;;
37559;SDS011;23398;50.928;7.084;2022-10-22T11:18:09;3.13;;;1.20;;
37559;SDS011;23398;50.928;7.084;2022-10-22T11:21:02;2.83;;;1.10;;
37559;SDS011;23398;50.928;7.084;2022-10-22T11:23:44;3.00;;;1.13;;
37559;SDS011;23398;50.928;7.084;2022-10-22T11:26:18;2.90;;;1.10;;
37559;SDS011;23398;50.928;7.084;2022-10-22T11:29:06;2.25;;;1.08;;
37559;SDS011;23398;50.928;7.084;2022-10-22T11:31:39;1.73;;;0.77;;
37559;SDS011;23398;50.928;7.084;2022-10-22T11:34:08;2.47;;;1.10;;
37559;SDS011;23398;50.928;7.084;2022-10-22T11:36:38;2.38;;;1.52;;
37559;SDS011;23398;50.928;7.084;2022-10-22T11:39:05;13.40;;;8.90;;
37559;SDS011;23398;50.928;7.084;2022-10-22T11:41:31;4.32;;;2.90;;
37559;SDS011;23398;50.928;7.084;2022-10-22T11:44:07;2.78;;;1.73;;
37559;SDS011;23398;50.928;7.084;2022-10-22T11:46:55;1.42;;;1.10;;
37559;SDS011;23398;50.928;7.084;2022-10-22T11:49:53;2.95;;;1.20;;
37559;SDS011;23398;50.928;7.084;2022-10-22T11:55:01;3.00;;;1.02;;
37559;SDS011;23398;50.928;7.084;2022-10-22T11:57:28;4.43;;;1.10;;
37559;SDS011;23398;50.928;7.084;2022-10-22T12:00:06;2.30;;;1.15;;
37559;SDS011;23398;50.928;7.084;2022-10-22T12:02:44;3.45;;;1.23;;
37559;SDS011;23398;50.928;7.084;2022-10-22T12:07:55;1.92;;;1.20;;
37559;SDS011;23398;50.928;7.084;2022-10-22T12:10:50;2.20;;;0.88;;
37559;SDS011;23398;50.928;7.084;2022-10-22T12:13:27;1.35;;;0.85;;
37559;SDS011;23398;50.928;7.084;2022-10-22T12:15:57;4.63;;;1.40;;
37559;SDS011;23398;50.928;7.084;2022-10-22T12:18:27;2.63;;;1.10;;
37559;SDS011;23398;50.928;7.084;2022-10-22T12:21:02;2.95;;;1.10;;
37559;SDS011;23398;50.928;7.084;2022-10-22T12:23:30;2.35;;;1.10;;
37559;SDS011;23398;50.928;7.084;2022-10-22T12:25:58;2.72;;;1.17;;
37559;SDS011;23398;50.928;7.084;2022-10-22T12:28:24;1.58;;;1.00;;
37559;SDS011;23398;50.928;7.084;2022-10-22T12:30:49;2.15;;;1.00;;
37559;SDS011;23398;50.928;7.084;2022-10-22T12:33:19;8.32;;;1.20;;
37559;SDS011;23398;50.928;7.084;2022-10-22T12:35:47;4.63;;;1.15;;
37559;SDS011;23398;50.928;7.084;2022-10-22T12:38:18;1.67;;;1.10;;
37559;SDS011;23398;50.928;7.084;2022-10-22T12:40:45;2.67;;;0.98;;
37559;SDS011;23398;50.928;7.084;2022-10-22T12:43:13;1.88;;;1.08;;
37559;SDS011;23398;50.928;7.084;2022-10-22T12:45:57;3.55;;;1.30;;
37559;SDS011;23398;50.928;7.084;2022-10-22T12:48:24;2.70;;;1.15;;
37559;SDS011;23398;50.928;7.084;2022-10-22T12:50:54;2.80;;;1.20;;
37559;SDS011;23398;50.928;7.084;2022-10-22T12:55:52;3.25;;;1.73;;
37559;SDS011;23398;50.928;7.084;2022-10-22T12:58:20;3.45;;;1.60;;
37559;SDS011;23398;50.928;7.084;2022-10-22T13:00:53;2.88;;;1.30;;
37559;SDS011;23398;50.928;7.084;2022-10-22T13:08:43;2.88;;;1.05;;
37559;SDS011;23398;50.928;7.084;2022-10-22T13:11:33;2.53;;;1.00;;
37559;SDS011;23398;50.928;7.084;2022-10-22T13:14:04;1.70;;;0.88;;
37559;SDS011;23398;50.928;7.084;2022-10-22T13:27:53;1.25;;;0.80;;
37559;SDS011;23398;50.928;7.084;2022-10-22T13:32:59;1.13;;;0.82;;
37559;SDS011;23398;50.928;7.084;2022-10-22T13:35:27;2.95;;;1.20;;
37559;SDS011;23398;50.928;7.084;2022-10-22T13:37:56;3.45;;;1.05;;
37559;SDS011;23398;50.928;7.084;2022-10-22T13:40:22;3.88;;;1.02;;
37559;SDS011;23398;50.928;7.084;2022-10-22T13:42:47;2.00;;;1.00;;
37559;SDS011;23398;50.928;7.084;2022-10-22T13:45:13;2.70;;;1.02;;
37559;SDS011;23398;50.928;7.084;2022-10-22T13:47:39;2.33;;;0.88;;
37559;SDS011;23398;50.928;7.084;2022-10-22T13:50:10;1.70;;;0.95;;
37559;SDS011;23398;50.928;7.084;2022-10-22T13:52:42;1.80;;;0.88;;
37559;SDS011;23398;50.928;7.084;2022-10-22T13:57:43;1.83;;;0.90;;
37559;SDS011;23398;50.928;7.084;2022-10-22T14:00:10;2.03;;;1.10;;
37559;SDS011;23398;50.928;7.084;2022-10-22T14:02:37;2.47;;;1.10;;
37559;SDS011;23398;50.928;7.084;2022-10-22T14:05:03;2.00;;;1.02;;
37559;SDS011;23398;50.928;7.084;2022-10-22T14:07:33;2.40;;;1.13;;
37559;SDS011;23398;50.928;7.084;2022-10-22T14:09:59;4.20;;;1.25;;
37559;SDS011;23398;50.928;7.084;2022-10-22T14:12:25;3.53;;;1.02;;
37559;SDS011;23398;50.928;7.084;2022-10-22T14:14:52;3.17;;;1.33;;
37559;SDS011;23398;50.928;7.084;2022-10-22T14:17:18;2.78;;;1.05;;
37559;SDS011;23398;50.928;7.084;2022-10-22T14:19:44;2.42;;;1.05;;
37559;SDS011;23398;50.928;7.084;2022-10-22T14:22:13;2.05;;;0.93;;
37559;SDS011;23398;50.928;7.084;2022-10-22T14:24:39;2.90;;;0.90;;
37559;SDS011;23398;50.928;7.084;2022-10-22T14:27:05;1.25;;;0.95;;
37559;SDS011;23398;50.928;7.084;2022-10-22T14:29:30;2.63;;;1.02;;
37559;SDS011;23398;50.928;7.084;2022-10-22T14:31:56;1.98;;;1.13;;
37559;SDS011;23398;50.928;7.084;2022-10-22T14:34:22;2.42;;;1.00;;
37559;SDS011;23398;50.928;7.084;2022-10-22T14:36:47;2.92;;;1.10;;
37559;SDS011;23398;50.928;7.084;2022-10-22T14:39:13;4.30;;;1.20;;
37559;SDS011;23398;50.928;7.084;2022-10-22T14:41:38;2.28;;;1.10;;
37559;SDS011;23398;50.928;7.084;2022-10-22T14:44:04;3.15;;;1.08;;
37559;SDS011;23398;50.928;7.084;2022-10-22T14:46:30;4.53;;;1.25;;
37559;SDS011;23398;50.928;7.084;2022-10-22T14:48:56;3.17;;;1.00;;
37559;SDS011;23398;50.928;7.084;2022-10-22T14:51:21;3.30;;;1.10;;
37559;SDS011;23398;50.928;7.084;2022-10-22T14:53:47;4.53;;;1.10;;
37559;SDS011;23398;50.928;7.084;2022-10-22T14:56:13;1.77;;;1.00;;
37559;SDS011;23398;50.928;7.084;2022-10-22T14:58:42;3.33;;;1.20;;
37559;SDS011;23398;50.928;7.084;2022-10-22T15:01:07;2.08;;;1.02;;
37559;SDS011;23398;50.928;7.084;2022-10-22T15:03:33;3.70;;;1.30;;
37559;SDS011;23398;50.928;7.084;2022-10-22T15:05:59;2.60;;;1.05;;
37559;SDS011;23398;50.928;7.084;2022-10-22T15:08:25;3.58;;;1.15;;
37559;SDS011;23398;50.928;7.084;2022-10-22T15:13:46;3.67;;;1.30;;
37559;SDS011;23398;50.928;7.084;2022-10-22T15:16:12;2.47;;;1.20;;
37559;SDS011;23398;50.928;7.084;2022-10-22T15:18:39;3.17;;;1.23;;
37559;SDS011;23398;50.928;7.084;2022-10-22T15:21:16;1.88;;;0.98;;
37559;SDS011;23398;50.928;7.084;2022-10-22T15:23:43;3.65;;;1.15;;
37559;SDS011;23398;50.928;7.084;2022-10-22T15:26:09;2.20;;;1.10;;
37559;SDS011;23398;50.928;7.084;2022-10-22T15:28:36;2.58;;;1.20;;
37559;SDS011;23398;50.928;7.084;2022-10-22T15:31:02;2.78;;;1.10;;
37559;SDS011;23398;50.928;7.084;2022-10-22T15:33:28;3.33;;;1.10;;
37559;SDS011;23398;50.928;7.084;2022-10-22T15:35:54;3.47;;;1.20;;
37559;SDS011;23398;50.928;7.084;2022-10-22T15:38:20;4.78;;;1.05;;
37559;SDS011;23398;50.928;7.084;2022-10-22T15:40:47;2.70;;;1.10;;
37559;SDS011;23398;50.928;7.084;2022-10-22T15:43:12;3.83;;;1.10;;
37559;SDS011;23398;50.928;7.084;2022-10-22T15:45:38;3.45;;;1.15;;
37559;SDS011;23398;50.928;7.084;2022-10-22T15:48:04;2.88;;;1.00;;
37559;SDS011;23398;50.928;7.084;2022-10-22T15:50:30;3.22;;;1.40;;
37559;SDS011;23398;50.928;7.084;2022-10-22T15:52:56;2.70;;;1.17;;
37559;SDS011;23398;50.928;7.084;2022-10-22T15:55:21;1.60;;;1.10;;
37559;SDS011;23398;50.928;7.084;2022-10-22T15:57:47;2.58;;;1.30;;
37559;SDS011;23398;50.928;7.084;2022-10-22T16:00:18;3.33;;;1.38;;
37559;SDS011;23398;50.928;7.084;2022-10-22T16:02:45;6.70;;;1.23;;
37559;SDS011;23398;50.928;7.084;2022-10-22T16:05:11;2.85;;;1.20;;
37559;SDS011;23398;50.928;7.084;2022-10-22T16:07:36;4.28;;;1.30;;
37559;SDS011;23398;50.928;7.084;2022-10-22T16:10:02;2.80;;;1.00;;
37559;SDS011;23398;50.928;7.084;2022-10-22T16:12:28;2.17;;;1.20;;
37559;SDS011;23398;50.928;7.084;2022-10-22T16:14:54;2.92;;;1.30;;
37559;SDS011;23398;50.928;7.084;2022-10-22T16:17:19;1.80;;;1.00;;
37559;SDS011;23398;50.928;7.084;2022-10-22T16:19:46;2.45;;;1.00;;
37559;SDS011;23398;50.928;7.084;2022-10-22T16:22:12;3.00;;;1.15;;
37559;SDS011;23398;50.928;7.084;2022-10-22T16:24:39;1.98;;;1.00;;
37559;SDS011;23398;50.928;7.084;2022-10-22T16:27:05;3.70;;;1.20;;
37559;SDS011;23398;50.928;7.084;2022-10-22T16:29:32;2.40;;;1.13;;
37559;SDS011;23398;50.928;7.084;2022-10-22T16:31:57;4.18;;;1.27;;
37559;SDS011;23398;50.928;7.084;2022-10-22T16:34:25;2.10;;;1.33;;
37559;SDS011;23398;50.928;7.084;2022-10-22T16:36:51;6.05;;;1.70;;
37559;SDS011;23398;50.928;7.084;2022-10-22T16:39:17;5.32;;;2.70;;
37559;SDS011;23398;50.928;7.084;2022-10-22T16:41:43;6.57;;;3.38;;
37559;SDS011;23398;50.928;7.084;2022-10-22T16:44:09;4.00;;;2.72;;
37559;SDS011;23398;50.928;7.084;2022-10-22T16:46:36;11.73;;;7.38;;
37559;SDS011;23398;50.928;7.084;2022-10-22T16:49:05;21.95;;;12.80;;
37559;SDS011;23398;50.928;7.084;2022-10-22T16:51:31;18.88;;;12.45;;